Time;durP1;ratioP1;P1;durP2;ratioP2;P2;SDS_P1;SDS_P2;PMS_P1;PMS_P2;Temp;Humidity;BMP_temperature;BMP_pressure;BME280_temperature;BME280_humidity;BME280_pressure;Samples;Min_cycle;Max_cycle;Signal;HPM_P1;HPM_P2
2022/10/26 00:00:46;;;;;;;11.27;5.72;;;;;;;15.31;68.61;101422.94;5030229;28;20025;-43
2022/10/26 00:03:12;;;;;;;9.38;5.38;;;;;;;15.39;67.86;101421.22;5030796;28;20036;-44
2022/10/26 00:05:38;;;;;;;10.15;5.03;;;;;;;15.51;67.84;101423.00;5031041;28;20493;-43
2022/10/26 00:08:04;;;;;;;9.48;5.45;;;;;;;15.39;68.23;101413.34;5031483;28;20078;-43
2022/10/26 00:10:29;;;;;;;10.48;5.60;;;;;;;15.46;67.93;101413.34;5033341;28;20111;-41
2022/10/26 00:12:54;;;;;;;11.25;5.32;;;;;;;15.44;67.97;101411.59;5034292;28;20021;-43
2022/10/26 00:15:20;;;;;;;8.57;5.30;;;;;;;15.35;68.36;101408.09;5032153;28;20120;-42
2022/10/26 00:17:47;;;;;;;8.48;5.20;;;;;;;15.16;69.15;101401.00;5029914;28;20030;-46
2022/10/26 00:20:13;;;;;;;7.75;5.00;;;;;;;15.16;69.27;101395.75;5029419;28;20167;-44
2022/10/26 00:22:38;;;;;;;8.65;5.07;;;;;;;15.16;68.96;101394.03;5029423;28;20136;-44
2022/10/26 00:25:05;;;;;;;11.10;5.25;;;;;;;15.14;68.93;101393.13;5029685;28;20089;-41
2022/10/26 00:27:33;;;;;;;10.95;5.45;;;;;;;15.10;68.95;101393.13;5029860;28;20035;-42
2022/10/26 00:29:59;;;;;;;9.70;5.07;;;;;;;15.32;68.28;101385.28;5029685;28;20018;-42
2022/10/26 00:32:24;;;;;;;8.90;5.20;;;;;;;15.13;68.91;101388.75;5029534;28;20036;-42
2022/10/26 00:34:50;;;;;;;12.30;5.10;;;;;;;15.11;68.91;101377.38;5029815;28;20083;-45
2022/10/26 00:37:15;;;;;;;8.38;5.20;;;;;;;15.09;69.03;101387.00;5029540;28;20035;-44
2022/10/26 00:39:40;;;;;;;11.32;5.20;;;;;;;15.38;68.25;101379.16;5029459;28;20370;-44
2022/10/26 00:42:05;;;;;;;10.35;5.05;;;;;;;15.34;67.98;101374.78;5029664;28;20030;-44
2022/10/26 00:45:03;;;;;;;10.27;5.38;;;;;;;15.46;67.77;101372.19;5029682;28;20112;-44
2022/10/26 00:47:31;;;;;;;10.68;5.13;;;;;;;15.53;67.77;101379.25;5001958;28;20041;-42
2022/10/26 00:50:01;;;;;;;9.43;5.10;;;;;;;15.22;68.46;101372.16;5029573;28;20201;-44
2022/10/26 00:52:28;;;;;;;11.15;5.38;;;;;;;15.34;68.34;101374.78;5029614;28;20415;-44
2022/10/26 00:54:53;;;;;;;9.10;4.82;;;;;;;15.40;68.13;101374.81;5029445;28;20079;-45
2022/10/26 00:57:19;;;;;;;9.00;5.20;;;;;;;15.42;68.34;101379.19;5029135;28;20436;-44
2022/10/26 00:59:45;;;;;;;9.80;5.03;;;;;;;15.46;68.08;101387.06;5029625;28;20040;-45
2022/10/26 01:02:11;;;;;;;9.35;5.20;;;;;;;15.53;67.58;101379.25;5029046;28;20053;-42
2022/10/26 01:04:36;;;;;;;8.15;4.93;;;;;;;15.58;67.64;101372.22;5029350;28;20045;-45
2022/10/26 01:07:04;;;;;;;6.85;4.90;;;;;;;15.75;67.01;101378.38;5029107;28;20100;-43
2022/10/26 01:09:30;;;;;;;9.55;5.15;;;;;;;15.61;67.70;101379.25;5029371;28;20116;-45
2022/10/26 01:11:56;;;;;;;9.77;5.13;;;;;;;15.59;67.64;101370.47;5029530;28;20047;-43
2022/10/26 01:14:23;;;;;;;8.63;5.10;;;;;;;15.67;67.32;101364.38;5029056;28;20552;-43
2022/10/26 01:17:10;;;;;;;11.07;4.95;;;;;;;15.53;67.91;101363.47;5029234;28;20029;-44
2022/10/26 01:19:41;;;;;;;8.52;5.10;;;;;;;15.55;67.90;101361.72;5029779;28;20481;-44
2022/10/26 01:22:19;;;;;;;8.18;4.38;;;;;;;15.71;67.21;101352.97;5028818;28;20036;-43
2022/10/26 01:24:53;;;;;;;8.15;5.00;;;;;;;15.55;67.63;101348.59;5029546;28;20030;-43
2022/10/26 01:27:44;;;;;;;9.52;5.00;;;;;;;15.18;69.07;101341.50;5029340;28;20035;-45
2022/10/26 01:30:20;;;;;;;9.02;5.05;;;;;;;15.62;67.89;101339.81;5020175;28;20072;-44
2022/10/26 01:33:04;;;;;;;7.30;4.78;;;;;;;15.62;67.58;101345.06;5033262;28;20032;-44
2022/10/26 01:35:54;;;;;;;8.98;4.80;;;;;;;15.64;67.58;101332.81;5033337;28;20384;-48
2022/10/26 01:38:25;;;;;;;8.80;4.85;;;;;;;15.57;67.93;101335.44;5033690;28;20497;-42
2022/10/26 01:40:58;;;;;;;9.88;4.70;;;;;;;15.68;67.62;101325.78;5033504;28;20108;-43
2022/10/26 01:43:27;;;;;;;9.60;4.88;;;;;;;15.57;67.90;101324.91;5049122;28;20076;-43
2022/10/26 01:45:54;;;;;;;8.55;4.75;;;;;;;15.35;68.81;101319.63;5033467;28;20029;-43
2022/10/26 01:48:21;;;;;;;8.77;4.50;;;;;;;15.42;68.57;101329.28;5033903;28;20049;-43
2022/10/26 01:50:51;;;;;;;9.10;4.80;;;;;;;15.16;69.27;101330.97;5033757;28;20072;-41
2022/10/26 01:53:18;;;;;;;7.85;5.30;;;;;;;15.16;69.06;101328.34;5034112;28;20060;-42
2022/10/26 01:55:50;;;;;;;8.30;4.93;;;;;;;15.22;69.15;101331.00;5034102;28;20086;-41
2022/10/26 01:58:47;;;;;;;10.10;5.30;;;;;;;15.32;68.92;101322.25;5033509;28;20044;-42
2022/10/26 02:01:31;;;;;;;13.00;5.00;;;;;;;15.40;68.81;101317.88;5032835;28;20021;-41
2022/10/26 02:04:26;;;;;;;13.15;5.05;;;;;;;15.25;69.17;101299.47;5032922;28;20116;-40
2022/10/26 02:07:08;;;;;;;9.95;4.88;;;;;;;15.41;68.90;101296.00;5033215;28;20025;-46
2022/10/26 02:09:55;;;;;;;10.25;5.07;;;;;;;15.31;69.03;101295.97;5032465;28;20439;-43
2022/10/26 02:12:33;;;;;;;9.55;4.78;;;;;;;15.52;68.41;101303.91;5031973;28;20032;-45
2022/10/26 02:15:07;;;;;;;8.32;4.82;;;;;;;15.33;68.98;101302.09;5032217;28;20029;-43
2022/10/26 02:17:47;;;;;;;8.35;4.90;;;;;;;15.17;69.37;101305.59;5032572;28;20071;-43
2022/10/26 02:20:20;;;;;;;9.30;5.03;;;;;;;15.43;68.74;101317.88;5032059;28;20408;-43
2022/10/26 02:22:49;;;;;;;10.75;4.70;;;;;;;15.48;68.58;101307.38;5032157;28;20357;-43
2022/10/26 02:25:24;;;;;;;8.52;4.75;;;;;;;15.53;68.19;101317.91;5032051;28;20033;-45
2022/10/26 02:27:54;;;;;;;8.35;4.95;;;;;;;15.16;69.32;101304.72;5031915;28;20052;-43
2022/10/26 02:30:20;;;;;;;10.20;4.97;;;;;;;15.38;69.01;101309.13;5031660;28;20493;-44
2022/10/26 02:32:50;;;;;;;11.10;5.28;;;;;;;15.39;68.76;101307.38;5032448;28;20104;-45
2022/10/26 02:35:21;;;;;;;10.25;4.95;;;;;;;15.40;68.37;101310.00;5031948;28;20028;-43
2022/10/26 02:37:48;;;;;;;10.00;5.00;;;;;;;15.33;69.01;101304.72;5031217;28;20087;-42
2022/10/26 02:40:19;;;;;;;10.43;5.20;;;;;;;14.82;70.81;101300.28;5032109;28;20021;-44
2022/10/26 02:42:46;;;;;;;8.68;5.10;;;;;;;15.21;69.57;101296.84;5032261;28;20026;-41
2022/10/26 02:45:16;;;;;;;7.80;4.80;;;;;;;14.99;70.52;101301.19;5032783;28;20025;-42
2022/10/26 02:47:41;;;;;;;8.38;4.70;;;;;;;15.10;70.10;101307.34;5033219;28;20049;-42
2022/10/26 02:50:07;;;;;;;10.10;5.00;;;;;;;15.19;69.44;101302.09;5032847;28;20106;-42
2022/10/26 02:52:47;;;;;;;8.50;4.78;;;;;;;15.39;69.20;101297.72;5032484;28;20123;-42
2022/10/26 02:55:19;;;;;;;10.00;5.40;;;;;;;15.32;69.56;101297.72;5032894;28;20045;-42
2022/10/26 02:57:49;;;;;;;7.82;5.07;;;;;;;15.57;68.58;101296.88;5049995;22;20432;-43
2022/10/26 03:00:17;;;;;;;8.25;4.68;;;;;;;15.62;68.36;101296.88;5013453;28;20072;-41
2022/10/26 03:02:44;;;;;;;11.23;5.10;;;;;;;15.37;69.26;101294.22;5013587;28;20021;-42
2022/10/26 03:05:15;;;;;;;7.80;4.80;;;;;;;15.61;68.38;101290.78;5012846;28;20022;-44
2022/10/26 03:07:40;;;;;;;10.35;5.07;;;;;;;15.60;68.41;101285.50;5011978;28;20030;-44
2022/10/26 03:10:06;;;;;;;13.48;5.10;;;;;;;15.42;69.03;101287.25;5013056;28;20160;-45
2022/10/26 03:12:31;;;;;;;8.65;5.10;;;;;;;15.57;68.23;101282.88;5016843;28;20092;-43
2022/10/26 03:14:57;;;;;;;11.50;5.30;;;;;;;15.33;68.86;101281.09;5015440;28;20021;-43
2022/10/26 03:17:22;;;;;;;7.43;4.88;;;;;;;15.41;68.80;101284.59;5016002;28;20121;-40
2022/10/26 03:19:47;;;;;;;9.02;5.03;;;;;;;15.52;68.53;101282.88;5015836;28;20112;-50
2022/10/26 03:22:13;;;;;;;9.45;5.10;;;;;;;15.23;69.27;101274.09;5013861;28;20025;-44
2022/10/26 03:24:38;;;;;;;10.98;5.13;;;;;;;15.11;70.34;101276.72;5014327;28;20086;-46
2022/10/26 03:27:03;;;;;;;8.32;4.97;;;;;;;15.48;68.78;101274.97;5013967;28;20040;-46
2022/10/26 03:29:28;;;;;;;8.77;5.20;;;;;;;15.73;68.16;101282.00;5012955;28;20064;-46
2022/10/26 03:31:54;;;;;;;9.00;5.03;;;;;;;15.30;69.53;101276.72;5012271;28;20060;-48
2022/10/26 03:34:20;;;;;;;8.73;5.28;;;;;;;15.21;70.04;101268.81;5011912;28;20598;-43
2022/10/26 03:36:46;;;;;;;8.75;5.20;;;;;;;15.46;69.45;101272.34;5011852;28;20034;-42
2022/10/26 03:39:11;;;;;;;12.35;5.38;;;;;;;15.59;68.64;101268.00;5011713;28;20030;-43
2022/10/26 03:41:37;;;;;;;8.93;5.25;;;;;;;15.43;69.31;101262.69;5011980;28;20033;-48
2022/10/26 03:44:02;;;;;;;8.57;5.30;;;;;;;15.35;69.19;101256.59;5011724;28;20118;-45
2022/10/26 03:46:27;;;;;;;8.30;4.97;;;;;;;15.45;69.16;101260.06;5011861;28;20057;-43
2022/10/26 03:48:53;;;;;;;6.72;4.72;;;;;;;15.18;69.87;101260.97;5012191;28;20033;-42
2022/10/26 03:51:18;;;;;;;9.25;5.13;;;;;;;15.74;68.04;101260.94;5011767;28;20452;-43
2022/10/26 03:53:43;;;;;;;9.80;5.03;;;;;;;15.69;68.11;101262.72;5012036;28;20034;-45
2022/10/26 03:56:09;;;;;;;11.25;5.15;;;;;;;15.83;67.35;101267.94;5012319;28;20029;-42
2022/10/26 03:58:34;;;;;;;8.95;4.60;;;;;;;15.53;68.54;101263.63;5011885;28;20022;-44
2022/10/26 04:00:59;;;;;;;9.45;5.00;;;;;;;15.74;67.90;101260.06;5012153;28;20461;-41
2022/10/26 04:03:24;;;;;;;7.65;4.80;;;;;;;15.55;68.93;101261.00;5011696;28;20030;-44
2022/10/26 04:05:50;;;;;;;9.43;5.25;;;;;;;15.49;68.88;101259.19;5011368;28;20021;-49
2022/10/26 04:08:15;;;;;;;7.38;4.90;;;;;;;15.34;69.35;101257.44;5011801;28;20030;-49
2022/10/26 04:10:40;;;;;;;9.20;5.03;;;;;;;15.46;69.11;101261.81;5010942;28;20068;-46
2022/10/26 04:13:06;;;;;;;9.75;4.70;;;;;;;15.79;68.02;101255.72;5011294;28;20064;-44
2022/10/26 04:15:31;;;;;;;8.75;4.70;;;;;;;15.84;67.71;101253.94;5011378;28;20030;-43
2022/10/26 04:17:58;;;;;;;8.52;4.75;;;;;;;15.59;68.90;101254.84;5010969;28;20065;-43
2022/10/26 04:20:24;;;;;;;7.97;4.85;;;;;;;15.69;68.74;101261.84;5011030;28;20036;-43
2022/10/26 04:23:06;;;;;;;9.02;4.88;;;;;;;15.77;68.47;101266.22;5011509;28;20022;-42
2022/10/26 04:25:32;;;;;;;9.55;4.78;;;;;;;15.61;68.64;101268.88;5011516;28;20033;-44
2022/10/26 04:27:58;;;;;;;9.77;4.70;;;;;;;15.70;68.66;101260.97;5011394;28;20036;-45
2022/10/26 04:30:24;;;;;;;9.57;4.45;;;;;;;15.72;68.56;101272.34;5010944;28;20029;-43
2022/10/26 04:32:49;;;;;;;8.38;4.82;;;;;;;15.77;68.59;101271.47;5011831;28;20026;-43
2022/10/26 04:35:15;;;;;;;11.85;4.57;;;;;;;15.85;68.02;101257.44;5013221;28;20021;-45
2022/10/26 04:37:40;;;;;;;7.80;4.50;;;;;;;15.96;67.76;101259.16;5012475;28;20432;-46
2022/10/26 04:40:06;;;;;;;7.97;4.80;;;;;;;15.92;68.21;101261.81;5009574;28;20033;-48
2022/10/26 04:42:43;;;;;;;8.63;4.65;;;;;;;15.99;67.99;101264.41;5010025;28;20513;-45
2022/10/26 04:45:09;;;;;;;7.28;4.43;;;;;;;15.56;69.28;101255.72;5009995;28;20026;-43
2022/10/26 04:47:34;;;;;;;6.60;4.32;;;;;;;15.96;67.83;101253.91;5010210;28;20474;-45
2022/10/26 04:50:00;;;;;;;7.78;4.50;;;;;;;15.88;68.41;101249.53;5010314;28;20030;-44
2022/10/26 04:52:25;;;;;;;8.90;4.53;;;;;;;15.73;68.40;101247.81;5010124;28;20456;-44
2022/10/26 04:54:50;;;;;;;7.63;4.78;;;;;;;15.49;69.73;101248.66;5010524;28;20021;-48
2022/10/26 04:57:15;;;;;;;8.70;4.57;;;;;;;15.72;69.05;101246.06;5009914;28;20311;-44
2022/10/26 04:59:41;;;;;;;10.32;4.80;;;;;;;15.54;69.32;101249.59;5010328;28;20460;-45
2022/10/26 05:02:06;;;;;;;8.45;4.50;;;;;;;15.69;69.58;101256.56;5009765;28;20025;-42
2022/10/26 05:04:31;;;;;;;19.98;4.57;;;;;;;15.73;69.10;101250.47;5009919;28;20116;-45
2022/10/26 05:06:56;;;;;;;7.05;4.50;;;;;;;15.70;69.09;101259.22;5013612;28;20022;-45
2022/10/26 05:09:22;;;;;;;6.85;4.20;;;;;;;15.97;68.70;101254.78;5014110;28;20033;-45
2022/10/26 05:11:47;;;;;;;7.75;4.72;;;;;;;15.71;68.72;101255.72;5012970;28;20021;-43
2022/10/26 05:14:13;;;;;;;10.45;4.57;;;;;;;15.59;69.42;101241.72;5014092;28;20033;-45
2022/10/26 05:16:38;;;;;;;9.57;4.60;;;;;;;15.74;69.17;101247.81;5014680;28;20160;-47
2022/10/26 05:19:03;;;;;;;9.10;4.50;;;;;;;15.61;69.61;101240.84;5014761;28;20040;-44
2022/10/26 05:21:29;;;;;;;9.30;4.65;;;;;;;15.92;68.46;101240.78;5013519;28;20033;-44
2022/10/26 05:23:54;;;;;;;8.65;4.18;;;;;;;16.14;68.15;101253.84;5014325;28;20038;-44
2022/10/26 05:26:21;;;;;;;7.90;4.60;;;;;;;16.02;68.34;101251.25;5014239;28;20033;-43
2022/10/26 05:28:47;;;;;;;8.65;4.50;;;;;;;16.25;67.42;101251.16;5014188;28;20037;-46
2022/10/26 05:31:12;;;;;;;14.13;4.15;;;;;;;15.92;68.45;101241.63;5015059;28;20021;-45
2022/10/26 05:33:38;;;;;;;9.63;4.50;;;;;;;15.85;68.81;101245.19;5014370;28;20030;-44
2022/10/26 05:36:04;;;;;;;9.73;4.40;;;;;;;15.98;68.23;101248.66;5013525;28;20444;-43
2022/10/26 05:38:29;;;;;;;9.82;4.47;;;;;;;16.32;67.26;101255.53;5014029;28;20111;-43
2022/10/26 05:40:55;;;;;;;9.43;4.30;;;;;;;16.13;68.36;101246.84;5012373;28;20077;-48
2022/10/26 05:43:22;;;;;;;8.23;4.47;;;;;;;16.13;68.02;101245.97;5013759;28;20125;-43
2022/10/26 05:45:51;;;;;;;6.88;4.55;;;;;;;16.02;68.45;101243.38;5013512;28;20102;-43
2022/10/26 05:48:16;;;;;;;8.35;4.85;;;;;;;15.94;68.58;101239.88;5014129;28;20029;-45
2022/10/26 05:50:41;;;;;;;7.40;4.50;;;;;;;16.22;67.85;101245.94;5014100;28;20040;-44
2022/10/26 05:53:07;;;;;;;6.97;4.45;;;;;;;15.79;69.03;101246.06;5012899;28;20158;-44
2022/10/26 05:55:33;;;;;;;9.05;5.05;;;;;;;15.87;69.37;101239.88;5014113;28;20044;-43
2022/10/26 05:57:59;;;;;;;8.82;4.65;;;;;;;15.69;70.01;101244.31;5013433;28;20044;-47
2022/10/26 06:00:26;;;;;;;8.95;4.65;;;;;;;15.86;68.92;101233.75;5013131;28;20393;-44
2022/10/26 06:03:22;;;;;;;11.13;4.72;;;;;;;15.92;69.13;101240.78;5013247;28;20113;-43
2022/10/26 06:05:54;;;;;;;10.45;4.70;;;;;;;16.05;68.55;101245.09;5013643;28;20022;-46
2022/10/26 06:08:21;;;;;;;8.80;4.60;;;;;;;16.10;68.36;101240.72;5012964;28;20453;-43
2022/10/26 06:10:48;;;;;;;7.13;4.28;;;;;;;16.08;68.65;101256.50;5012709;28;20026;-43
2022/10/26 06:13:14;;;;;;;10.95;4.70;;;;;;;16.12;68.43;101257.34;5012958;28;20109;-44
2022/10/26 06:16:14;;;;;;;9.63;4.50;;;;;;;15.98;68.73;101248.66;5013090;28;20022;-48
2022/10/26 06:18:52;;;;;;;7.82;4.57;;;;;;;15.98;68.85;101249.50;5010671;28;20077;-44
2022/10/26 06:21:54;;;;;;;7.97;4.45;;;;;;;15.98;69.07;101249.50;5012361;28;20025;-44
2022/10/26 06:24:47;;;;;;;9.48;4.63;;;;;;;15.85;69.22;101241.66;5013129;28;20226;-46
2022/10/26 06:27:24;;;;;;;12.50;4.45;;;;;;;15.98;68.67;101251.28;5012750;28;20033;-43
2022/10/26 06:29:58;;;;;;;12.25;4.40;;;;;;;15.84;69.31;101246.06;5014224;28;20053;-42
2022/10/26 06:32:23;;;;;;;10.68;4.82;;;;;;;15.69;69.76;101251.31;5011907;28;20410;-42
2022/10/26 06:34:51;;;;;;;7.57;4.80;;;;;;;15.58;70.65;101255.72;5012556;28;20032;-45
2022/10/26 06:37:17;;;;;;;8.07;4.65;;;;;;;15.74;69.63;101246.94;5012773;28;20136;-41
2022/10/26 06:39:46;;;;;;;10.63;4.50;;;;;;;15.71;70.10;101247.81;5012203;28;20536;-46
2022/10/26 06:42:12;;;;;;;8.90;4.55;;;;;;;15.62;70.62;101260.09;5011795;28;20133;-44
2022/10/26 06:44:38;;;;;;;9.68;4.70;;;;;;;15.62;70.04;101254.81;5013032;28;20434;-47
2022/10/26 06:47:17;;;;;;;8.50;4.40;;;;;;;16.10;68.88;101267.03;5012756;28;20025;-44
2022/10/26 06:49:55;;;;;;;10.02;4.45;;;;;;;16.27;67.77;101273.09;5012322;28;20505;-50
2022/10/26 06:52:32;;;;;;;9.52;4.80;;;;;;;15.88;69.10;101276.69;5012087;28;20040;-44
2022/10/26 06:54:59;;;;;;;8.27;4.70;;;;;;;16.02;68.92;101271.41;5011938;28;20028;-44
2022/10/26 06:57:31;;;;;;;7.90;4.70;;;;;;;15.94;69.15;101278.44;5012288;28;20076;-44
2022/10/26 07:00:00;;;;;;;9.88;4.72;;;;;;;16.08;68.90;101271.41;5012551;28;20033;-49
2022/10/26 07:02:26;;;;;;;7.75;4.93;;;;;;;16.05;68.85;101268.75;5011773;28;20473;-45
2022/10/26 07:04:51;;;;;;;10.45;4.90;;;;;;;16.13;68.74;101269.63;5011593;28;20120;-45
2022/10/26 07:07:19;;;;;;;9.57;4.90;;;;;;;16.26;68.34;101260.81;5011477;28;20018;-45
2022/10/26 07:09:45;;;;;;;8.45;4.50;;;;;;;15.91;69.52;101262.69;5012038;28;20022;-43
2022/10/26 07:12:11;;;;;;;10.35;4.75;;;;;;;16.40;68.24;101274.81;5011463;28;20371;-47
2022/10/26 07:14:36;;;;;;;8.93;4.70;;;;;;;16.58;67.67;101287.00;5011928;28;20022;-48
2022/10/26 07:17:01;;;;;;;7.47;4.10;;;;;;;16.67;67.25;101299.28;5012033;28;20068;-44
2022/10/26 07:19:27;;;;;;;9.45;4.15;;;;;;;16.74;67.34;101296.59;5012193;28;20057;-45
2022/10/26 07:21:55;;;;;;;6.65;4.25;;;;;;;16.79;67.28;101296.56;5012110;28;20033;-44
2022/10/26 07:24:20;;;;;;;7.60;4.22;;;;;;;16.90;67.23;101295.63;5011607;28;20037;-44
2022/10/26 07:26:46;;;;;;;8.27;4.15;;;;;;;17.08;66.79;101306.97;5011662;28;20026;-43
2022/10/26 07:29:11;;;;;;;6.38;3.80;;;;;;;17.13;66.45;101302.53;5010734;28;20026;-47
2022/10/26 07:31:36;;;;;;;10.13;4.00;;;;;;;17.17;66.39;101312.16;5011183;28;20112;-43
2022/10/26 07:34:02;;;;;;;6.90;3.97;;;;;;;17.18;66.09;101314.78;5011427;28;20389;-46
2022/10/26 07:36:28;;;;;;;8.88;4.20;;;;;;;17.24;65.92;101327.03;5011760;28;20030;-45
2022/10/26 07:38:53;;;;;;;8.48;4.07;;;;;;;17.15;66.54;101327.97;5011666;28;20013;-43
2022/10/26 07:41:19;;;;;;;6.40;3.60;;;;;;;17.26;66.15;101331.41;5011115;28;20393;-43
2022/10/26 07:43:44;;;;;;;7.47;3.75;;;;;;;17.39;66.08;101333.06;5011160;28;20105;-46
2022/10/26 07:46:10;;;;;;;7.45;3.65;;;;;;;17.43;65.67;101337.44;5011766;28;20026;-45
2022/10/26 07:48:35;;;;;;;8.52;3.60;;;;;;;17.58;64.87;101331.16;5013339;28;20113;-43
2022/10/26 07:51:01;;;;;;;7.70;3.60;;;;;;;17.70;64.57;101338.13;5013457;28;20057;-44
2022/10/26 07:53:27;;;;;;;6.63;3.67;;;;;;;17.77;64.65;101350.38;5014023;28;20022;-46
2022/10/26 07:55:56;;;;;;;7.65;3.60;;;;;;;17.74;64.64;101353.06;5014080;28;20022;-43
2022/10/26 07:58:24;;;;;;;10.82;3.83;;;;;;;17.87;64.71;101356.47;5013812;28;20045;-44
2022/10/26 08:00:50;;;;;;;7.35;3.50;;;;;;;18.03;64.53;101352.78;5013998;28;20025;-45
2022/10/26 08:03:16;;;;;;;5.97;3.30;;;;;;;18.18;64.26;101345.59;5014283;28;20030;-46
2022/10/26 08:05:44;;;;;;;8.35;3.08;;;;;;;18.39;63.79;101344.50;5013991;28;20057;-43
2022/10/26 08:08:09;;;;;;;9.55;3.10;;;;;;;18.51;63.52;101347.00;5014127;28;20029;-48
2022/10/26 08:10:34;;;;;;;5.38;3.30;;;;;;;18.58;63.19;101342.56;5013073;28;20026;-43
2022/10/26 08:13:00;;;;;;;5.82;3.10;;;;;;;18.70;62.92;101338.88;5011920;28;20026;-44
2022/10/26 08:15:25;;;;;;;7.55;3.03;;;;;;;18.89;62.77;101337.75;5011179;28;20033;-46
2022/10/26 08:17:50;;;;;;;6.25;3.17;;;;;;;19.06;62.39;101335.75;5010227;28;20505;-44
2022/10/26 08:20:16;;;;;;;7.55;3.30;;;;;;;19.16;61.80;101331.19;5011512;28;20037;-43
2022/10/26 08:22:41;;;;;;;6.40;2.90;;;;;;;19.18;61.66;101327.66;5011701;28;20402;-44
2022/10/26 08:25:06;;;;;;;11.80;3.53;;;;;;;19.23;61.66;101324.91;5011879;28;20026;-47
2022/10/26 08:27:32;;;;;;;5.65;2.83;;;;;;;19.39;61.34;101329.94;5011461;28;20347;-43
2022/10/26 08:29:57;;;;;;;8.55;2.95;;;;;;;19.39;61.03;101331.75;5012724;28;20027;-46
2022/10/26 08:32:22;;;;;;;6.32;2.90;;;;;;;19.50;61.27;101340.41;5011106;28;20037;-46
2022/10/26 08:34:48;;;;;;;8.55;3.00;;;;;;;19.38;61.58;101338.81;5013045;28;20109;-43
2022/10/26 08:37:13;;;;;;;5.47;3.10;;;;;;;19.54;60.97;101349.16;5018569;28;20109;-47
2022/10/26 08:39:38;;;;;;;8.85;3.10;;;;;;;19.67;60.79;101353.34;5020225;28;20478;-45
2022/10/26 08:42:15;;;;;;;8.68;3.13;;;;;;;19.67;60.15;101356.00;5026146;28;20030;-47
2022/10/26 08:44:46;;;;;;;7.57;3.08;;;;;;;19.63;61.01;101362.25;5028958;28;20366;-50
2022/10/26 08:47:21;;;;;;;9.55;3.15;;;;;;;19.63;60.61;101373.72;5018573;28;20089;-44
2022/10/26 08:50:08;;;;;;;8.80;3.20;;;;;;;19.80;61.08;101369.00;5013472;28;20552;-43
2022/10/26 08:52:52;;;;;;;7.97;3.25;;;;;;;19.71;61.05;101368.25;5011679;28;20116;-47
2022/10/26 08:55:21;;;;;;;8.05;3.20;;;;;;;20.20;59.70;101376.22;5010659;28;20053;-44
2022/10/26 08:57:48;;;;;;;7.60;3.03;;;;;;;20.21;59.78;101367.41;5033041;23;20096;-36
2022/10/26 09:00:22;;;;;;;5.43;3.17;;;;;;;20.09;59.86;101368.50;5048867;28;20095;-38
2022/10/26 09:02:52;;;;;;;10.07;3.33;;;;;;;20.14;60.00;101376.34;5049544;28;20025;-38
2022/10/26 09:05:37;;;;;;;8.00;3.20;;;;;;;20.28;60.24;101369.03;5049540;28;20048;-37
2022/10/26 09:08:22;;;;;;;7.97;3.28;;;;;;;19.97;60.76;101375.78;5064892;28;20475;-37
2022/10/26 09:10:57;;;;;;;9.40;3.10;;;;;;;20.20;60.65;101389.47;5049336;28;20029;-38
2022/10/26 09:14:04;;;;;;;9.13;3.10;;;;;;;20.23;60.76;101395.59;5049396;28;20503;-37
2022/10/26 09:16:42;;;;;;;7.32;2.92;;;;;;;20.36;60.23;101388.34;5041869;28;20060;-37
2022/10/26 09:19:26;;;;;;;10.00;3.10;;;;;;;20.14;60.88;101387.81;5049511;28;20037;-38
2022/10/26 09:22:05;;;;;;;5.38;3.00;;;;;;;20.33;60.90;101396.34;5049417;28;20025;-42
2022/10/26 09:24:32;;;;;;;7.75;2.80;;;;;;;20.27;61.19;101393.75;5049708;28;20021;-38
2022/10/26 09:27:00;;;;;;;6.95;2.92;;;;;;;20.51;60.64;101395.97;5050148;28;20380;-37
2022/10/26 09:29:31;;;;;;;7.32;2.60;;;;;;;20.46;61.12;101394.31;5050835;28;20025;-39
2022/10/26 09:31:59;;;;;;;7.35;2.58;;;;;;;20.51;60.85;101401.28;5052034;28;20025;-36
2022/10/26 09:34:34;;;;;;;7.07;2.70;;;;;;;20.30;61.46;101403.44;5051716;28;20484;-37
2022/10/26 09:37:12;;;;;;;7.03;2.45;;;;;;;20.39;61.69;101405.94;5050948;28;20033;-39
2022/10/26 09:39:45;;;;;;;6.15;2.90;;;;;;;20.01;62.85;101407.44;5066189;28;20071;-36
2022/10/26 09:42:47;;;;;;;6.80;2.72;;;;;;;20.08;63.19;101406.44;5050381;28;20033;-38
2022/10/26 09:45:19;;;;;;;7.00;2.70;;;;;;;20.37;62.33;101421.84;5047666;28;20356;-38
2022/10/26 09:47:51;;;;;;;5.80;2.50;;;;;;;20.55;62.23;101424.16;5049312;28;20318;-39
2022/10/26 09:50:29;;;;;;;6.03;2.60;;;;;;;20.55;62.24;101428.59;5048880;28;20029;-39
2022/10/26 09:52:55;;;;;;;7.53;2.60;;;;;;;20.67;62.19;101425.72;5052288;28;20044;-38
2022/10/26 09:55:21;;;;;;;6.53;2.58;;;;;;;20.96;61.34;101425.13;5052984;28;20131;-38
2022/10/26 09:57:51;;;;;;;6.45;2.70;;;;;;;20.77;61.85;101435.22;5052551;28;20047;-38
2022/10/26 10:00:20;;;;;;;9.00;3.00;;;;;;;20.89;61.52;101450.00;5052800;28;20104;-36
2022/10/26 10:02:50;;;;;;;5.38;2.58;;;;;;;20.57;62.28;101445.31;5053521;28;20630;-40
2022/10/26 10:05:30;;;;;;;8.38;2.97;;;;;;;20.41;62.63;101444.75;5052960;28;20028;-39
2022/10/26 10:08:14;;;;;;;7.22;3.10;;;;;;;20.89;61.83;101455.31;5052604;28;20116;-38
2022/10/26 10:10:57;;;;;;;6.07;2.90;;;;;;;20.87;61.61;101459.75;5052900;28;20029;-39
2022/10/26 10:13:25;;;;;;;7.00;3.00;;;;;;;20.94;62.44;101472.00;5053334;28;20033;-39
2022/10/26 10:15:53;;;;;;;6.57;2.80;;;;;;;21.31;60.55;101475.66;5052515;28;20029;-38
2022/10/26 10:18:23;;;;;;;8.18;2.83;;;;;;;21.05;60.80;101483.25;5052646;28;20504;-37
2022/10/26 10:20:56;;;;;;;6.60;2.80;;;;;;;21.34;60.11;101488.88;5052532;28;20021;-38
2022/10/26 10:23:27;;;;;;;;;;;;;;;21.08;61.15;101488.50;5053156;28;20056;-38
2022/10/26 10:26:12;;;;;;;9.73;3.00;;;;;;;21.05;61.22;101496.50;5052415;28;20292;-37
2022/10/26 10:28:39;;;;;;;9.65;2.80;;;;;;;21.14;61.21;101493.69;5052727;28;20048;-40
2022/10/26 10:31:18;;;;;;;8.32;3.00;;;;;;;21.06;61.76;101492.94;5052367;28;20021;-40
2022/10/26 10:33:44;;;;;;;6.05;2.65;;;;;;;21.32;60.95;101501.28;5068509;28;20029;-40
2022/10/26 10:36:18;;;;;;;6.20;2.70;;;;;;;21.30;61.29;101491.59;5057036;28;20071;-37
2022/10/26 10:38:46;;;;;;;5.63;2.95;;;;;;;21.20;61.65;101501.53;5058517;28;20021;-38
2022/10/26 10:41:24;;;;;;;9.55;2.70;;;;;;;21.52;60.97;101500.00;5057202;28;20060;-37
2022/10/26 10:44:11;;;;;;;9.13;3.33;;;;;;;21.25;61.79;101494.38;5056028;28;20063;-38
2022/10/26 10:46:36;;;;;;;7.63;2.95;;;;;;;21.61;60.62;101513.91;5056182;28;20035;-37
2022/10/26 10:49:21;;;;;;;9.15;3.05;;;;;;;21.36;61.30;101512.69;5054962;28;20107;-40
2022/10/26 10:51:47;;;;;;;5.15;2.90;;;;;;;21.62;59.99;101505.06;5052097;28;20025;-38
2022/10/26 10:54:26;;;;;;;10.98;2.80;;;;;;;21.50;60.57;101502.69;5051717;28;20018;-40
2022/10/26 10:57:15;;;;;;;9.77;3.17;;;;;;;21.43;61.11;101511.66;5052925;28;20024;-38
2022/10/26 11:00:05;;;;;;;8.32;3.13;;;;;;;21.06;62.47;101516.81;5052430;28;20032;-39
2022/10/26 11:02:43;;;;;;;10.23;3.10;;;;;;;21.00;62.46;101524.88;5052122;28;20047;-38
2022/10/26 11:05:46;;;;;;;9.90;3.20;;;;;;;20.74;63.49;101529.81;5052070;28;20487;-38
2022/10/26 11:08:19;;;;;;;10.07;2.88;;;;;;;21.02;62.79;101529.25;5051918;28;20397;-37
2022/10/26 11:10:52;;;;;;;6.95;3.10;;;;;;;21.09;63.26;101524.72;5051834;28;20029;-35
2022/10/26 11:13:34;;;;;;;5.18;2.60;;;;;;;21.62;60.98;101528.06;5051688;28;20028;-37
2022/10/26 11:16:04;;;;;;;6.15;2.70;;;;;;;21.67;61.25;101539.44;5052262;28;20040;-38
2022/10/26 11:18:36;;;;;;;5.93;2.88;;;;;;;21.63;60.50;101543.97;5052443;28;20025;-38
2022/10/26 11:21:14;;;;;;;5.88;2.70;;;;;;;21.94;60.16;101546.81;5049583;28;20473;-39
2022/10/26 11:23:48;;;;;;;9.45;3.28;;;;;;;21.88;59.60;101562.00;5052184;28;20067;-38
2022/10/26 11:26:16;;;;;;;;;;;;;;;21.99;59.33;101550.25;5052253;28;20028;-38
2022/10/26 11:28:57;;;;;;;7.72;3.10;;;;;;;21.65;61.20;101550.09;5051876;28;19991;-38
2022/10/26 11:31:29;;;;;;;8.43;2.88;;;;;;;22.09;59.76;101553.56;5052261;28;20037;-40
2022/10/26 11:34:23;;;;;;;7.28;2.80;;;;;;;22.17;59.49;101552.50;5053199;28;20087;-38
2022/10/26 11:36:56;;;;;;;10.98;3.10;;;;;;;22.27;59.21;101561.09;5052990;28;20111;-39
2022/10/26 11:39:35;;;;;;;7.78;2.88;;;;;;;22.16;58.89;101557.84;5051419;28;20028;-37